sensor_id;sensor_type;location;lat;lon;timestamp;P1;durP1;ratioP1;P2;durP2;ratioP2
55220;SDS011;41089;51.448;6.604;2022-09-01T00:05:18;5.88;;;1.75;;
55220;SDS011;41089;51.448;6.604;2022-09-01T00:11:20;6.18;;;1.67;;
55220;SDS011;41089;51.448;6.604;2022-09-01T00:17:22;7.68;;;2.10;;
55220;SDS011;41089;51.448;6.604;2022-09-01T00:23:22;3.88;;;2.08;;
55220;SDS011;41089;51.448;6.604;2022-09-01T00:29:23;3.50;;;1.85;;
55220;SDS011;41089;51.448;6.604;2022-09-01T00:35:24;7.10;;;1.90;;
55220;SDS011;41089;51.448;6.604;2022-09-01T00:41:27;5.07;;;3.08;;
55220;SDS011;41089;51.448;6.604;2022-09-01T00:47:30;4.25;;;2.05;;
55220;SDS011;41089;51.448;6.604;2022-09-01T00:53:30;8.03;;;2.10;;
55220;SDS011;41089;51.448;6.604;2022-09-01T00:59:31;4.50;;;1.80;;
55220;SDS011;41089;51.448;6.604;2022-09-01T01:05:35;2.08;;;1.58;;
55220;SDS011;41089;51.448;6.604;2022-09-01T01:11:39;4.00;;;2.03;;
55220;SDS011;41089;51.448;6.604;2022-09-01T01:17:39;3.43;;;1.93;;
55220;SDS011;41089;51.448;6.604;2022-09-01T01:30:24;3.20;;;1.60;;
55220;SDS011;41089;51.448;6.604;2022-09-01T01:36:40;4.60;;;1.70;;
55220;SDS011;41089;51.448;6.604;2022-09-01T01:42:44;2.83;;;1.80;;
55220;SDS011;41089;51.448;6.604;2022-09-01T01:48:46;2.95;;;1.42;;
55220;SDS011;41089;51.448;6.604;2022-09-01T01:54:47;4.22;;;2.25;;
55220;SDS011;41089;51.448;6.604;2022-09-01T02:00:49;4.75;;;1.80;;
55220;SDS011;41089;51.448;6.604;2022-09-01T02:06:50;3.40;;;1.58;;
55220;SDS011;41089;51.448;6.604;2022-09-01T02:12:51;5.20;;;1.90;;
55220;SDS011;41089;51.448;6.604;2022-09-01T02:18:51;4.40;;;2.42;;
55220;SDS011;41089;51.448;6.604;2022-09-01T02:24:52;4.30;;;1.70;;
55220;SDS011;41089;51.448;6.604;2022-09-01T02:30:55;4.93;;;1.80;;
55220;SDS011;41089;51.448;6.604;2022-09-01T02:36:56;4.38;;;1.70;;
55220;SDS011;41089;51.448;6.604;2022-09-01T02:42:57;4.07;;;1.93;;
55220;SDS011;41089;51.448;6.604;2022-09-01T02:48:59;8.13;;;1.98;;
55220;SDS011;41089;51.448;6.604;2022-09-01T02:54:59;2.97;;;1.90;;
55220;SDS011;41089;51.448;6.604;2022-09-01T03:00:59;2.50;;;1.77;;
55220;SDS011;41089;51.448;6.604;2022-09-01T03:07:03;5.97;;;1.47;;
55220;SDS011;41089;51.448;6.604;2022-09-01T03:13:06;3.13;;;1.67;;
55220;SDS011;41089;51.448;6.604;2022-09-01T03:19:08;4.25;;;1.92;;
55220;SDS011;41089;51.448;6.604;2022-09-01T03:25:11;1.95;;;1.75;;
55220;SDS011;41089;51.448;6.604;2022-09-01T03:31:13;6.35;;;2.00;;
55220;SDS011;41089;51.448;6.604;2022-09-01T03:37:14;3.42;;;1.63;;
55220;SDS011;41089;51.448;6.604;2022-09-01T03:43:14;5.97;;;1.83;;
55220;SDS011;41089;51.448;6.604;2022-09-01T03:49:15;4.90;;;2.20;;
55220;SDS011;41089;51.448;6.604;2022-09-01T03:55:28;5.43;;;1.90;;
55220;SDS011;41089;51.448;6.604;2022-09-01T04:01:30;7.18;;;2.03;;
55220;SDS011;41089;51.448;6.604;2022-09-01T04:07:36;9.95;;;1.83;;
55220;SDS011;41089;51.448;6.604;2022-09-01T04:13:38;4.78;;;2.10;;
55220;SDS011;41089;51.448;6.604;2022-09-01T04:19:39;2.75;;;1.95;;
55220;SDS011;41089;51.448;6.604;2022-09-01T04:25:41;3.17;;;1.85;;
55220;SDS011;41089;51.448;6.604;2022-09-01T04:31:42;3.65;;;1.85;;
55220;SDS011;41089;51.448;6.604;2022-09-01T04:37:42;9.40;;;2.50;;
55220;SDS011;41089;51.448;6.604;2022-09-01T04:43:43;5.50;;;2.60;;
55220;SDS011;41089;51.448;6.604;2022-09-01T04:49:47;7.00;;;2.55;;
55220;SDS011;41089;51.448;6.604;2022-09-01T04:55:47;7.22;;;2.45;;
55220;SDS011;41089;51.448;6.604;2022-09-01T05:01:49;6.15;;;2.33;;
55220;SDS011;41089;51.448;6.604;2022-09-01T05:07:53;6.45;;;2.55;;
55220;SDS011;41089;51.448;6.604;2022-09-01T05:13:54;7.32;;;2.38;;
55220;SDS011;41089;51.448;6.604;2022-09-01T05:19:56;6.20;;;2.47;;
55220;SDS011;41089;51.448;6.604;2022-09-01T05:25:57;4.47;;;2.22;;
55220;SDS011;41089;51.448;6.604;2022-09-01T05:31:58;5.40;;;2.42;;
55220;SDS011;41089;51.448;6.604;2022-09-01T05:37:59;9.70;;;2.95;;
55220;SDS011;41089;51.448;6.604;2022-09-01T05:44:01;6.78;;;2.58;;
55220;SDS011;41089;51.448;6.604;2022-09-01T05:50:03;7.95;;;2.80;;
55220;SDS011;41089;51.448;6.604;2022-09-01T05:56:05;4.75;;;2.65;;
55220;SDS011;41089;51.448;6.604;2022-09-01T06:02:08;9.98;;;2.78;;
55220;SDS011;41089;51.448;6.604;2022-09-01T06:08:08;7.23;;;3.20;;
55220;SDS011;41089;51.448;6.604;2022-09-01T06:14:09;4.65;;;2.55;;
55220;SDS011;41089;51.448;6.604;2022-09-01T06:20:10;4.97;;;2.38;;
55220;SDS011;41089;51.448;6.604;2022-09-01T06:26:21;3.67;;;2.50;;
55220;SDS011;41089;51.448;6.604;2022-09-01T06:32:26;5.38;;;2.60;;
55220;SDS011;41089;51.448;6.604;2022-09-01T06:38:27;11.75;;;2.78;;
55220;SDS011;41089;51.448;6.604;2022-09-01T06:44:29;7.90;;;3.10;;
55220;SDS011;41089;51.448;6.604;2022-09-01T06:50:32;9.30;;;2.83;;
55220;SDS011;41089;51.448;6.604;2022-09-01T06:56:33;9.73;;;3.25;;
55220;SDS011;41089;51.448;6.604;2022-09-01T07:02:43;5.70;;;2.53;;
55220;SDS011;41089;51.448;6.604;2022-09-01T07:08:44;6.60;;;2.47;;
55220;SDS011;41089;51.448;6.604;2022-09-01T07:14:48;5.97;;;1.80;;
55220;SDS011;41089;51.448;6.604;2022-09-01T07:20:49;3.17;;;2.00;;
55220;SDS011;41089;51.448;6.604;2022-09-01T07:26:51;9.27;;;2.15;;
55220;SDS011;41089;51.448;6.604;2022-09-01T07:32:53;4.32;;;2.35;;
55220;SDS011;41089;51.448;6.604;2022-09-01T07:38:55;5.72;;;1.67;;
55220;SDS011;41089;51.448;6.604;2022-09-01T07:44:55;6.93;;;1.95;;
55220;SDS011;41089;51.448;6.604;2022-09-01T07:50:57;6.50;;;1.92;;
55220;SDS011;41089;51.448;6.604;2022-09-01T07:56:57;5.90;;;2.10;;
55220;SDS011;41089;51.448;6.604;2022-09-01T08:02:58;8.52;;;1.80;;
55220;SDS011;41089;51.448;6.604;2022-09-01T08:08:58;3.35;;;2.03;;
55220;SDS011;41089;51.448;6.604;2022-09-01T08:15:03;2.95;;;1.58;;
55220;SDS011;41089;51.448;6.604;2022-09-01T08:21:08;9.07;;;2.10;;
55220;SDS011;41089;51.448;6.604;2022-09-01T08:27:10;6.78;;;2.20;;
55220;SDS011;41089;51.448;6.604;2022-09-01T08:33:11;3.53;;;1.80;;
55220;SDS011;41089;51.448;6.604;2022-09-01T08:39:13;5.53;;;1.83;;
55220;SDS011;41089;51.448;6.604;2022-09-01T08:51:34;2.70;;;1.00;;
55220;SDS011;41089;51.448;6.604;2022-09-01T08:57:38;2.07;;;1.40;;
55220;SDS011;41089;51.448;6.604;2022-09-01T09:03:56;2.17;;;1.35;;
55220;SDS011;41089;51.448;6.604;2022-09-01T09:22:44;3.17;;;1.20;;
55220;SDS011;41089;51.448;6.604;2022-09-01T09:28:45;6.95;;;1.80;;
55220;SDS011;41089;51.448;6.604;2022-09-01T09:34:53;3.15;;;1.13;;
55220;SDS011;41089;51.448;6.604;2022-09-01T09:47:05;1.52;;;1.23;;
55220;SDS011;41089;51.448;6.604;2022-09-01T10:05:44;4.03;;;0.90;;
55220;SDS011;41089;51.448;6.604;2022-09-01T10:11:53;3.15;;;1.15;;
55220;SDS011;41089;51.448;6.604;2022-09-01T10:17:57;2.90;;;1.00;;
55220;SDS011;41089;51.448;6.604;2022-09-01T10:24:02;0.80;;;0.80;;
55220;SDS011;41089;51.448;6.604;2022-09-01T10:30:18;3.20;;;1.60;;
55220;SDS011;41089;51.448;6.604;2022-09-01T10:36:19;2.92;;;1.13;;
55220;SDS011;41089;51.448;6.604;2022-09-01T10:42:25;5.97;;;1.83;;
55220;SDS011;41089;51.448;6.604;2022-09-01T10:48:29;2.63;;;1.30;;
55220;SDS011;41089;51.448;6.604;2022-09-01T11:07:21;2.90;;;1.20;;
55220;SDS011;41089;51.448;6.604;2022-09-01T11:25:39;2.90;;;1.10;;
55220;SDS011;41089;51.448;6.604;2022-09-01T11:31:40;3.28;;;1.98;;
55220;SDS011;41089;51.448;6.604;2022-09-01T11:37:46;1.85;;;1.40;;
55220;SDS011;41089;51.448;6.604;2022-09-01T11:43:47;2.05;;;1.70;;
55220;SDS011;41089;51.448;6.604;2022-09-01T11:49:49;4.10;;;1.40;;
55220;SDS011;41089;51.448;6.604;2022-09-01T11:55:53;5.88;;;1.30;;
55220;SDS011;41089;51.448;6.604;2022-09-01T12:01:56;3.67;;;1.60;;
55220;SDS011;41089;51.448;6.604;2022-09-01T12:07:57;1.42;;;1.08;;
55220;SDS011;41089;51.448;6.604;2022-09-01T12:14:00;2.42;;;1.33;;
55220;SDS011;41089;51.448;6.604;2022-09-01T12:26:25;2.30;;;1.27;;
55220;SDS011;41089;51.448;6.604;2022-09-01T12:32:26;2.95;;;1.42;;
55220;SDS011;41089;51.448;6.604;2022-09-01T12:38:28;2.25;;;1.33;;
55220;SDS011;41089;51.448;6.604;2022-09-01T12:44:30;6.88;;;2.58;;
55220;SDS011;41089;51.448;6.604;2022-09-01T12:50:34;3.50;;;1.33;;
55220;SDS011;41089;51.448;6.604;2022-09-01T12:56:36;7.03;;;1.75;;
55220;SDS011;41089;51.448;6.604;2022-09-01T13:02:39;2.65;;;1.65;;
55220;SDS011;41089;51.448;6.604;2022-09-01T13:08:40;1.77;;;1.60;;
55220;SDS011;41089;51.448;6.604;2022-09-01T13:14:43;5.75;;;1.63;;
55220;SDS011;41089;51.448;6.604;2022-09-01T13:20:44;2.30;;;1.50;;
55220;SDS011;41089;51.448;6.604;2022-09-01T13:26:45;5.47;;;1.33;;
55220;SDS011;41089;51.448;6.604;2022-09-01T13:32:47;3.75;;;1.73;;
55220;SDS011;41089;51.448;6.604;2022-09-01T13:38:49;3.20;;;1.85;;
55220;SDS011;41089;51.448;6.604;2022-09-01T13:44:50;3.10;;;1.70;;
55220;SDS011;41089;51.448;6.604;2022-09-01T13:50:51;3.78;;;1.80;;
55220;SDS011;41089;51.448;6.604;2022-09-01T13:56:52;2.63;;;1.60;;
55220;SDS011;41089;51.448;6.604;2022-09-01T14:02:53;3.88;;;1.60;;
55220;SDS011;41089;51.448;6.604;2022-09-01T14:08:55;1.90;;;1.38;;
55220;SDS011;41089;51.448;6.604;2022-09-01T14:14:57;4.60;;;1.58;;
55220;SDS011;41089;51.448;6.604;2022-09-01T14:20:58;2.75;;;1.30;;
55220;SDS011;41089;51.448;6.604;2022-09-01T14:27:00;2.05;;;1.50;;
55220;SDS011;41089;51.448;6.604;2022-09-01T14:33:03;2.15;;;1.20;;
55220;SDS011;41089;51.448;6.604;2022-09-01T14:39:03;3.13;;;1.73;;
55220;SDS011;41089;51.448;6.604;2022-09-01T14:45:04;3.05;;;1.50;;
55220;SDS011;41089;51.448;6.604;2022-09-01T14:51:06;1.95;;;1.60;;
55220;SDS011;41089;51.448;6.604;2022-09-01T14:57:08;2.28;;;1.65;;
55220;SDS011;41089;51.448;6.604;2022-09-01T15:03:08;2.47;;;1.85;;
55220;SDS011;41089;51.448;6.604;2022-09-01T15:09:09;4.32;;;1.52;;
55220;SDS011;41089;51.448;6.604;2022-09-01T15:15:10;2.90;;;1.50;;
55220;SDS011;41089;51.448;6.604;2022-09-01T15:27:24;2.85;;;1.60;;
55220;SDS011;41089;51.448;6.604;2022-09-01T15:33:25;2.80;;;1.50;;
55220;SDS011;41089;51.448;6.604;2022-09-01T15:39:25;2.03;;;1.23;;
55220;SDS011;41089;51.448;6.604;2022-09-01T15:45:26;1.40;;;1.30;;
55220;SDS011;41089;51.448;6.604;2022-09-01T15:51:29;2.33;;;1.13;;
55220;SDS011;41089;51.448;6.604;2022-09-01T15:57:36;3.03;;;1.50;;
55220;SDS011;41089;51.448;6.604;2022-09-01T16:03:36;4.07;;;1.40;;
55220;SDS011;41089;51.448;6.604;2022-09-01T16:09:37;3.80;;;1.20;;
55220;SDS011;41089;51.448;6.604;2022-09-01T16:15:43;3.10;;;1.77;;
55220;SDS011;41089;51.448;6.604;2022-09-01T16:21:53;4.03;;;1.58;;
55220;SDS011;41089;51.448;6.604;2022-09-01T16:28:25;6.40;;;1.35;;
55220;SDS011;41089;51.448;6.604;2022-09-01T16:34:27;4.32;;;1.92;;
55220;SDS011;41089;51.448;6.604;2022-09-01T16:47:03;5.57;;;2.13;;
55220;SDS011;41089;51.448;6.604;2022-09-01T17:18:33;3.15;;;1.58;;
55220;SDS011;41089;51.448;6.604;2022-09-01T17:24:41;2.88;;;1.45;;
55220;SDS011;41089;51.448;6.604;2022-09-01T17:30:49;3.45;;;1.30;;
55220;SDS011;41089;51.448;6.604;2022-09-01T17:50:19;3.53;;;1.60;;
55220;SDS011;41089;51.448;6.604;2022-09-01T17:56:43;1.27;;;1.00;;
55220;SDS011;41089;51.448;6.604;2022-09-01T18:09:47;2.08;;;1.30;;
55220;SDS011;41089;51.448;6.604;2022-09-01T18:15:50;3.85;;;2.10;;
55220;SDS011;41089;51.448;6.604;2022-09-01T18:22:02;4.43;;;2.08;;
55220;SDS011;41089;51.448;6.604;2022-09-01T18:28:05;4.47;;;1.98;;
55220;SDS011;41089;51.448;6.604;2022-09-01T18:34:09;5.20;;;1.80;;
55220;SDS011;41089;51.448;6.604;2022-09-01T18:46:51;3.58;;;1.98;;
55220;SDS011;41089;51.448;6.604;2022-09-01T19:17:42;4.18;;;1.42;;
55220;SDS011;41089;51.448;6.604;2022-09-01T19:30:05;3.10;;;1.00;;
55220;SDS011;41089;51.448;6.604;2022-09-01T19:36:07;3.25;;;1.55;;
55220;SDS011;41089;51.448;6.604;2022-09-01T19:48:28;3.38;;;1.65;;
55220;SDS011;41089;51.448;6.604;2022-09-01T20:00:47;5.95;;;1.60;;
55220;SDS011;41089;51.448;6.604;2022-09-01T20:06:59;2.75;;;1.50;;
55220;SDS011;41089;51.448;6.604;2022-09-01T20:25:45;3.78;;;1.60;;
55220;SDS011;41089;51.448;6.604;2022-09-01T20:31:49;3.60;;;1.90;;
55220;SDS011;41089;51.448;6.604;2022-09-01T20:37:58;5.45;;;1.90;;
55220;SDS011;41089;51.448;6.604;2022-09-01T20:44:06;5.57;;;2.20;;
55220;SDS011;41089;51.448;6.604;2022-09-01T20:50:11;2.80;;;1.50;;
55220;SDS011;41089;51.448;6.604;2022-09-01T20:56:16;6.97;;;1.92;;
55220;SDS011;41089;51.448;6.604;2022-09-01T21:15:13;2.05;;;1.85;;
55220;SDS011;41089;51.448;6.604;2022-09-01T21:33:26;3.97;;;1.92;;
55220;SDS011;41089;51.448;6.604;2022-09-01T21:39:29;8.10;;;2.33;;
55220;SDS011;41089;51.448;6.604;2022-09-01T21:45:31;3.38;;;2.00;;
55220;SDS011;41089;51.448;6.604;2022-09-01T21:51:31;3.75;;;2.10;;
55220;SDS011;41089;51.448;6.604;2022-09-01T21:57:32;6.57;;;2.67;;
55220;SDS011;41089;51.448;6.604;2022-09-01T22:03:33;3.85;;;2.25;;
55220;SDS011;41089;51.448;6.604;2022-09-01T22:09:35;5.95;;;2.28;;
55220;SDS011;41089;51.448;6.604;2022-09-01T22:15:39;8.70;;;2.38;;
55220;SDS011;41089;51.448;6.604;2022-09-01T22:21:41;2.83;;;1.98;;
55220;SDS011;41089;51.448;6.604;2022-09-01T22:27:42;5.23;;;2.40;;
55220;SDS011;41089;51.448;6.604;2022-09-01T22:33:42;4.35;;;2.03;;
55220;SDS011;41089;51.448;6.604;2022-09-01T22:39:43;4.68;;;2.15;;
55220;SDS011;41089;51.448;6.604;2022-09-01T22:45:44;5.20;;;1.70;;
55220;SDS011;41089;51.448;6.604;2022-09-01T22:51:45;4.88;;;2.33;;
55220;SDS011;41089;51.448;6.604;2022-09-01T22:57:46;4.47;;;2.13;;
55220;SDS011;41089;51.448;6.604;2022-09-01T23:03:47;7.73;;;2.33;;
55220;SDS011;41089;51.448;6.604;2022-09-01T23:09:48;2.88;;;1.80;;
55220;SDS011;41089;51.448;6.604;2022-09-01T23:15:48;3.60;;;1.77;;
55220;SDS011;41089;51.448;6.604;2022-09-01T23:21:49;4.07;;;2.40;;
55220;SDS011;41089;51.448;6.604;2022-09-01T23:27:50;6.25;;;2.10;;
55220;SDS011;41089;51.448;6.604;2022-09-01T23:33:51;6.78;;;1.90;;
55220;SDS011;41089;51.448;6.604;2022-09-01T23:39:52;6.75;;;2.75;;
55220;SDS011;41089;51.448;6.604;2022-09-01T23:45:54;5.40;;;2.15;;
55220;SDS011;41089;51.448;6.604;2022-09-01T23:51:55;4.22;;;1.98;;
55220;SDS011;41089;51.448;6.604;2022-09-01T23:57:55;7.28;;;2.20;;
